sensor_id;sensor_type;location;lat;lon;timestamp;P1;durP1;ratioP1;P2;durP2;ratioP2
68718;SDS011;55696;52.138;5.444;2022-12-10T00:02:06;44.53;;;18.80;;
68718;SDS011;55696;52.138;5.444;2022-12-10T00:04:33;42.60;;;18.47;;
68718;SDS011;55696;52.138;5.444;2022-12-10T00:07:00;42.97;;;19.40;;
68718;SDS011;55696;52.138;5.444;2022-12-10T00:09:27;46.70;;;20.38;;
68718;SDS011;55696;52.138;5.444;2022-12-10T00:11:54;42.77;;;18.60;;
68718;SDS011;55696;52.138;5.444;2022-12-10T00:14:20;40.92;;;18.35;;
68718;SDS011;55696;52.138;5.444;2022-12-10T00:16:47;50.53;;;19.83;;
68718;SDS011;55696;52.138;5.444;2022-12-10T00:19:14;41.42;;;17.02;;
68718;SDS011;55696;52.138;5.444;2022-12-10T00:21:41;46.30;;;18.75;;
68718;SDS011;55696;52.138;5.444;2022-12-10T00:24:09;43.40;;;19.63;;
68718;SDS011;55696;52.138;5.444;2022-12-10T00:26:38;43.70;;;17.50;;
68718;SDS011;55696;52.138;5.444;2022-12-10T00:29:06;45.73;;;18.83;;
68718;SDS011;55696;52.138;5.444;2022-12-10T00:31:37;43.60;;;18.25;;
68718;SDS011;55696;52.138;5.444;2022-12-10T00:34:06;42.75;;;18.45;;
68718;SDS011;55696;52.138;5.444;2022-12-10T00:36:37;47.70;;;18.93;;
68718;SDS011;55696;52.138;5.444;2022-12-10T00:39:08;42.83;;;17.08;;
68718;SDS011;55696;52.138;5.444;2022-12-10T00:41:38;51.00;;;19.45;;
68718;SDS011;55696;52.138;5.444;2022-12-10T00:44:04;41.63;;;18.23;;
68718;SDS011;55696;52.138;5.444;2022-12-10T00:46:31;45.70;;;18.90;;
68718;SDS011;55696;52.138;5.444;2022-12-10T00:48:58;46.28;;;19.20;;
68718;SDS011;55696;52.138;5.444;2022-12-10T00:51:26;51.53;;;20.05;;
68718;SDS011;55696;52.138;5.444;2022-12-10T00:53:54;48.47;;;19.20;;
68718;SDS011;55696;52.138;5.444;2022-12-10T00:56:24;46.28;;;19.25;;
68718;SDS011;55696;52.138;5.444;2022-12-10T00:58:56;51.03;;;20.83;;
68718;SDS011;55696;52.138;5.444;2022-12-10T01:01:26;46.10;;;20.00;;
68718;SDS011;55696;52.138;5.444;2022-12-10T01:03:59;53.28;;;20.95;;
68718;SDS011;55696;52.138;5.444;2022-12-10T01:06:30;56.97;;;22.85;;
68718;SDS011;55696;52.138;5.444;2022-12-10T01:09:03;59.72;;;22.92;;
68718;SDS011;55696;52.138;5.444;2022-12-10T01:11:33;57.78;;;21.67;;
68718;SDS011;55696;52.138;5.444;2022-12-10T01:14:04;47.60;;;19.58;;
68718;SDS011;55696;52.138;5.444;2022-12-10T01:16:32;55.42;;;22.33;;
68718;SDS011;55696;52.138;5.444;2022-12-10T01:18:59;53.40;;;21.50;;
68718;SDS011;55696;52.138;5.444;2022-12-10T01:21:27;57.40;;;22.00;;
68718;SDS011;55696;52.138;5.444;2022-12-10T01:23:55;56.72;;;21.80;;
68718;SDS011;55696;52.138;5.444;2022-12-10T01:26:25;51.67;;;21.37;;
68718;SDS011;55696;52.138;5.444;2022-12-10T01:28:54;52.88;;;20.30;;
68718;SDS011;55696;52.138;5.444;2022-12-10T01:31:31;56.63;;;21.40;;
68718;SDS011;55696;52.138;5.444;2022-12-10T01:34:05;53.75;;;20.42;;
68718;SDS011;55696;52.138;5.444;2022-12-10T01:36:34;45.03;;;18.80;;
68718;SDS011;55696;52.138;5.444;2022-12-10T01:39:03;55.92;;;21.33;;
68718;SDS011;55696;52.138;5.444;2022-12-10T01:41:35;61.10;;;22.95;;
68718;SDS011;55696;52.138;5.444;2022-12-10T01:46:38;58.80;;;21.48;;
68718;SDS011;55696;52.138;5.444;2022-12-10T01:49:12;56.42;;;22.27;;
68718;SDS011;55696;52.138;5.444;2022-12-10T01:51:44;52.10;;;21.08;;
68718;SDS011;55696;52.138;5.444;2022-12-10T01:54:15;51.13;;;20.00;;
68718;SDS011;55696;52.138;5.444;2022-12-10T01:56:48;51.28;;;20.63;;
68718;SDS011;55696;52.138;5.444;2022-12-10T01:59:21;54.28;;;22.38;;
68718;SDS011;55696;52.138;5.444;2022-12-10T02:10:27;53.83;;;21.00;;
68718;SDS011;55696;52.138;5.444;2022-12-10T02:15:47;51.63;;;20.27;;
68718;SDS011;55696;52.138;5.444;2022-12-10T02:20:56;48.97;;;20.88;;
68718;SDS011;55696;52.138;5.444;2022-12-10T02:23:27;54.85;;;20.17;;
68718;SDS011;55696;52.138;5.444;2022-12-10T02:26:22;51.35;;;21.45;;
68718;SDS011;55696;52.138;5.444;2022-12-10T02:31:52;58.88;;;23.50;;
68718;SDS011;55696;52.138;5.444;2022-12-10T02:34:41;59.05;;;22.23;;
68718;SDS011;55696;52.138;5.444;2022-12-10T02:37:35;54.15;;;21.90;;
68718;SDS011;55696;52.138;5.444;2022-12-10T02:40:13;55.87;;;20.73;;
68718;SDS011;55696;52.138;5.444;2022-12-10T02:42:48;59.05;;;21.30;;
68718;SDS011;55696;52.138;5.444;2022-12-10T02:45:20;52.53;;;20.48;;
68718;SDS011;55696;52.138;5.444;2022-12-10T02:47:53;57.53;;;19.90;;
68718;SDS011;55696;52.138;5.444;2022-12-10T02:50:23;46.65;;;17.85;;
68718;SDS011;55696;52.138;5.444;2022-12-10T02:52:51;48.60;;;18.85;;
68718;SDS011;55696;52.138;5.444;2022-12-10T02:55:18;52.38;;;19.70;;
68718;SDS011;55696;52.138;5.444;2022-12-10T03:00:45;48.30;;;18.95;;
68718;SDS011;55696;52.138;5.444;2022-12-10T03:03:25;62.28;;;19.65;;
68718;SDS011;55696;52.138;5.444;2022-12-10T03:08:49;51.92;;;19.08;;
68718;SDS011;55696;52.138;5.444;2022-12-10T03:11:23;51.83;;;18.55;;
68718;SDS011;55696;52.138;5.444;2022-12-10T03:16:22;60.27;;;18.03;;
68718;SDS011;55696;52.138;5.444;2022-12-10T03:18:52;53.47;;;17.52;;
68718;SDS011;55696;52.138;5.444;2022-12-10T03:21:22;96.95;;;18.88;;
68718;SDS011;55696;52.138;5.444;2022-12-10T03:23:52;69.17;;;18.37;;
68718;SDS011;55696;52.138;5.444;2022-12-10T03:26:19;73.13;;;18.55;;
68718;SDS011;55696;52.138;5.444;2022-12-10T03:28:49;65.97;;;18.95;;
68718;SDS011;55696;52.138;5.444;2022-12-10T03:31:19;125.68;;;19.23;;
68718;SDS011;55696;52.138;5.444;2022-12-10T03:33:47;101.53;;;19.48;;
68718;SDS011;55696;52.138;5.444;2022-12-10T03:36:15;92.57;;;21.58;;
68718;SDS011;55696;52.138;5.444;2022-12-10T03:38:44;132.32;;;21.55;;
68718;SDS011;55696;52.138;5.444;2022-12-10T03:41:11;181.57;;;21.50;;
68718;SDS011;55696;52.138;5.444;2022-12-10T03:43:51;73.40;;;19.05;;
68718;SDS011;55696;52.138;5.444;2022-12-10T03:46:25;78.25;;;20.08;;
68718;SDS011;55696;52.138;5.444;2022-12-10T03:48:55;56.97;;;18.37;;
68718;SDS011;55696;52.138;5.444;2022-12-10T03:51:23;53.38;;;18.90;;
68718;SDS011;55696;52.138;5.444;2022-12-10T03:53:50;44.58;;;16.98;;
68718;SDS011;55696;52.138;5.444;2022-12-10T03:56:18;59.00;;;17.70;;
68718;SDS011;55696;52.138;5.444;2022-12-10T03:58:46;77.53;;;18.55;;
68718;SDS011;55696;52.138;5.444;2022-12-10T04:01:13;76.47;;;17.23;;
68718;SDS011;55696;52.138;5.444;2022-12-10T04:03:41;51.47;;;17.80;;
68718;SDS011;55696;52.138;5.444;2022-12-10T04:06:16;66.20;;;17.50;;
68718;SDS011;55696;52.138;5.444;2022-12-10T04:08:45;76.32;;;18.58;;
68718;SDS011;55696;52.138;5.444;2022-12-10T04:11:12;66.38;;;16.90;;
68718;SDS011;55696;52.138;5.444;2022-12-10T04:13:39;111.70;;;20.47;;
68718;SDS011;55696;52.138;5.444;2022-12-10T04:16:25;59.15;;;18.02;;
68718;SDS011;55696;52.138;5.444;2022-12-10T04:19:03;58.47;;;17.85;;
68718;SDS011;55696;52.138;5.444;2022-12-10T04:21:35;45.42;;;15.82;;
68718;SDS011;55696;52.138;5.444;2022-12-10T04:24:24;69.18;;;15.55;;
68718;SDS011;55696;52.138;5.444;2022-12-10T04:27:24;41.58;;;16.33;;
68718;SDS011;55696;52.138;5.444;2022-12-10T04:29:53;79.47;;;19.20;;
68718;SDS011;55696;52.138;5.444;2022-12-10T04:32:22;115.50;;;19.13;;
68718;SDS011;55696;52.138;5.444;2022-12-10T04:34:50;60.25;;;17.90;;
68718;SDS011;55696;52.138;5.444;2022-12-10T04:37:17;109.75;;;19.08;;
68718;SDS011;55696;52.138;5.444;2022-12-10T04:39:45;69.17;;;17.83;;
68718;SDS011;55696;52.138;5.444;2022-12-10T04:42:12;80.75;;;17.98;;
68718;SDS011;55696;52.138;5.444;2022-12-10T04:44:39;64.50;;;18.65;;
68718;SDS011;55696;52.138;5.444;2022-12-10T04:47:07;46.38;;;17.33;;
68718;SDS011;55696;52.138;5.444;2022-12-10T04:49:35;72.95;;;17.60;;
68718;SDS011;55696;52.138;5.444;2022-12-10T04:52:03;55.67;;;18.33;;
68718;SDS011;55696;52.138;5.444;2022-12-10T04:54:31;59.00;;;17.10;;
68718;SDS011;55696;52.138;5.444;2022-12-10T04:57:04;76.57;;;16.77;;
68718;SDS011;55696;52.138;5.444;2022-12-10T04:59:31;58.58;;;16.92;;
68718;SDS011;55696;52.138;5.444;2022-12-10T05:01:58;46.85;;;16.45;;
68718;SDS011;55696;52.138;5.444;2022-12-10T05:04:25;64.30;;;17.20;;
68718;SDS011;55696;52.138;5.444;2022-12-10T05:06:52;65.95;;;16.92;;
68718;SDS011;55696;52.138;5.444;2022-12-10T05:09:19;124.25;;;19.50;;
68718;SDS011;55696;52.138;5.444;2022-12-10T05:11:45;51.25;;;17.35;;
68718;SDS011;55696;52.138;5.444;2022-12-10T05:14:13;63.70;;;17.55;;
68718;SDS011;55696;52.138;5.444;2022-12-10T05:16:41;70.38;;;18.85;;
68718;SDS011;55696;52.138;5.444;2022-12-10T05:19:08;62.17;;;19.95;;
68718;SDS011;55696;52.138;5.444;2022-12-10T05:21:35;105.97;;;19.73;;
68718;SDS011;55696;52.138;5.444;2022-12-10T05:24:21;54.63;;;19.05;;
68718;SDS011;55696;52.138;5.444;2022-12-10T05:26:49;60.13;;;19.70;;
68718;SDS011;55696;52.138;5.444;2022-12-10T05:29:17;67.63;;;18.67;;
68718;SDS011;55696;52.138;5.444;2022-12-10T05:31:45;111.80;;;19.80;;
68718;SDS011;55696;52.138;5.444;2022-12-10T05:34:12;60.42;;;20.15;;
68718;SDS011;55696;52.138;5.444;2022-12-10T05:36:39;64.07;;;19.85;;
68718;SDS011;55696;52.138;5.444;2022-12-10T05:39:06;70.50;;;21.33;;
68718;SDS011;55696;52.138;5.444;2022-12-10T05:41:35;134.35;;;22.10;;
68718;SDS011;55696;52.138;5.444;2022-12-10T05:44:03;66.55;;;20.23;;
68718;SDS011;55696;52.138;5.444;2022-12-10T05:46:32;62.13;;;20.40;;
68718;SDS011;55696;52.138;5.444;2022-12-10T05:49:00;62.75;;;20.73;;
68718;SDS011;55696;52.138;5.444;2022-12-10T05:51:30;57.65;;;20.13;;
68718;SDS011;55696;52.138;5.444;2022-12-10T05:53:59;69.17;;;20.43;;
68718;SDS011;55696;52.138;5.444;2022-12-10T05:56:27;76.78;;;19.95;;
68718;SDS011;55696;52.138;5.444;2022-12-10T05:58:56;71.45;;;22.13;;
68718;SDS011;55696;52.138;5.444;2022-12-10T06:01:26;62.42;;;20.33;;
68718;SDS011;55696;52.138;5.444;2022-12-10T06:03:56;87.78;;;20.65;;
68718;SDS011;55696;52.138;5.444;2022-12-10T06:06:25;61.80;;;20.42;;
68718;SDS011;55696;52.138;5.444;2022-12-10T06:08:54;69.53;;;20.40;;
68718;SDS011;55696;52.138;5.444;2022-12-10T06:11:23;50.97;;;18.57;;
68718;SDS011;55696;52.138;5.444;2022-12-10T06:13:50;59.42;;;20.45;;
68718;SDS011;55696;52.138;5.444;2022-12-10T06:16:22;55.70;;;20.17;;
68718;SDS011;55696;52.138;5.444;2022-12-10T06:18:49;97.97;;;18.80;;
68718;SDS011;55696;52.138;5.444;2022-12-10T06:21:17;50.25;;;18.15;;
68718;SDS011;55696;52.138;5.444;2022-12-10T06:23:46;51.28;;;17.55;;
68718;SDS011;55696;52.138;5.444;2022-12-10T06:26:14;41.85;;;14.95;;
68718;SDS011;55696;52.138;5.444;2022-12-10T06:28:44;51.63;;;17.98;;
68718;SDS011;55696;52.138;5.444;2022-12-10T06:31:12;49.97;;;16.85;;
68718;SDS011;55696;52.138;5.444;2022-12-10T06:33:40;47.13;;;17.05;;
68718;SDS011;55696;52.138;5.444;2022-12-10T06:36:07;50.23;;;16.97;;
68718;SDS011;55696;52.138;5.444;2022-12-10T06:38:36;51.67;;;17.42;;
68718;SDS011;55696;52.138;5.444;2022-12-10T06:41:06;51.65;;;18.88;;
68718;SDS011;55696;52.138;5.444;2022-12-10T06:43:34;62.77;;;17.27;;
68718;SDS011;55696;52.138;5.444;2022-12-10T06:46:05;78.00;;;16.95;;
68718;SDS011;55696;52.138;5.444;2022-12-10T06:48:39;59.58;;;18.05;;
68718;SDS011;55696;52.138;5.444;2022-12-10T06:51:07;60.33;;;18.38;;
68718;SDS011;55696;52.138;5.444;2022-12-10T06:53:35;52.00;;;16.88;;
68718;SDS011;55696;52.138;5.444;2022-12-10T06:56:03;57.85;;;17.27;;
68718;SDS011;55696;52.138;5.444;2022-12-10T06:58:32;53.13;;;19.05;;
68718;SDS011;55696;52.138;5.444;2022-12-10T07:01:07;71.27;;;17.60;;
68718;SDS011;55696;52.138;5.444;2022-12-10T07:03:35;54.30;;;18.15;;
68718;SDS011;55696;52.138;5.444;2022-12-10T07:06:02;52.35;;;17.02;;
68718;SDS011;55696;52.138;5.444;2022-12-10T07:08:30;46.87;;;16.83;;
68718;SDS011;55696;52.138;5.444;2022-12-10T07:10:57;44.88;;;16.60;;
68718;SDS011;55696;52.138;5.444;2022-12-10T07:13:24;42.70;;;17.58;;
68718;SDS011;55696;52.138;5.444;2022-12-10T07:15:56;40.20;;;14.45;;
68718;SDS011;55696;52.138;5.444;2022-12-10T07:18:24;43.17;;;15.55;;
68718;SDS011;55696;52.138;5.444;2022-12-10T07:20:51;41.45;;;15.70;;
68718;SDS011;55696;52.138;5.444;2022-12-10T07:23:18;45.35;;;16.42;;
68718;SDS011;55696;52.138;5.444;2022-12-10T07:25:46;38.40;;;14.60;;
68718;SDS011;55696;52.138;5.444;2022-12-10T07:28:13;40.05;;;16.33;;
68718;SDS011;55696;52.138;5.444;2022-12-10T07:30:40;49.83;;;16.13;;
68718;SDS011;55696;52.138;5.444;2022-12-10T07:33:06;43.00;;;15.93;;
68718;SDS011;55696;52.138;5.444;2022-12-10T07:35:33;54.83;;;16.98;;
68718;SDS011;55696;52.138;5.444;2022-12-10T07:38:00;45.22;;;16.10;;
68718;SDS011;55696;52.138;5.444;2022-12-10T07:40:27;44.88;;;15.75;;
68718;SDS011;55696;52.138;5.444;2022-12-10T07:42:54;67.40;;;17.52;;
68718;SDS011;55696;52.138;5.444;2022-12-10T07:45:21;45.83;;;17.70;;
68718;SDS011;55696;52.138;5.444;2022-12-10T07:47:47;52.33;;;16.20;;
68718;SDS011;55696;52.138;5.444;2022-12-10T07:50:14;50.07;;;16.67;;
68718;SDS011;55696;52.138;5.444;2022-12-10T07:52:41;55.05;;;16.52;;
68718;SDS011;55696;52.138;5.444;2022-12-10T07:55:08;46.67;;;16.40;;
68718;SDS011;55696;52.138;5.444;2022-12-10T07:57:35;45.20;;;16.20;;
68718;SDS011;55696;52.138;5.444;2022-12-10T08:00:02;55.70;;;17.48;;
68718;SDS011;55696;52.138;5.444;2022-12-10T08:02:37;52.03;;;17.10;;
68718;SDS011;55696;52.138;5.444;2022-12-10T08:05:04;53.75;;;16.60;;
68718;SDS011;55696;52.138;5.444;2022-12-10T08:07:31;58.65;;;16.98;;
68718;SDS011;55696;52.138;5.444;2022-12-10T08:09:58;51.65;;;17.10;;
68718;SDS011;55696;52.138;5.444;2022-12-10T08:12:25;51.80;;;16.55;;
68718;SDS011;55696;52.138;5.444;2022-12-10T08:14:52;42.70;;;16.43;;
68718;SDS011;55696;52.138;5.444;2022-12-10T08:17:18;72.57;;;16.48;;
68718;SDS011;55696;52.138;5.444;2022-12-10T08:19:45;52.72;;;16.83;;
68718;SDS011;55696;52.138;5.444;2022-12-10T08:22:12;62.47;;;16.80;;
68718;SDS011;55696;52.138;5.444;2022-12-10T08:24:39;54.45;;;17.35;;
68718;SDS011;55696;52.138;5.444;2022-12-10T08:27:05;51.67;;;17.88;;
68718;SDS011;55696;52.138;5.444;2022-12-10T08:29:32;50.03;;;17.67;;
68718;SDS011;55696;52.138;5.444;2022-12-10T08:31:59;47.22;;;16.80;;
68718;SDS011;55696;52.138;5.444;2022-12-10T08:34:26;66.07;;;16.88;;
68718;SDS011;55696;52.138;5.444;2022-12-10T08:36:53;46.92;;;15.85;;
68718;SDS011;55696;52.138;5.444;2022-12-10T08:39:19;45.17;;;16.03;;
68718;SDS011;55696;52.138;5.444;2022-12-10T08:41:46;48.63;;;16.77;;
68718;SDS011;55696;52.138;5.444;2022-12-10T08:44:13;46.08;;;16.40;;
68718;SDS011;55696;52.138;5.444;2022-12-10T08:46:40;114.63;;;18.13;;
68718;SDS011;55696;52.138;5.444;2022-12-10T08:49:06;81.93;;;16.98;;
68718;SDS011;55696;52.138;5.444;2022-12-10T08:51:33;46.05;;;16.25;;
68718;SDS011;55696;52.138;5.444;2022-12-10T08:54:00;52.00;;;16.50;;
68718;SDS011;55696;52.138;5.444;2022-12-10T08:56:27;51.80;;;15.80;;
68718;SDS011;55696;52.138;5.444;2022-12-10T08:58:54;56.40;;;17.55;;
68718;SDS011;55696;52.138;5.444;2022-12-10T09:01:21;45.47;;;16.42;;
68718;SDS011;55696;52.138;5.444;2022-12-10T09:03:48;45.73;;;15.20;;
68718;SDS011;55696;52.138;5.444;2022-12-10T09:06:17;50.75;;;14.43;;
68718;SDS011;55696;52.138;5.444;2022-12-10T09:08:45;40.22;;;14.23;;
68718;SDS011;55696;52.138;5.444;2022-12-10T09:11:16;38.83;;;15.37;;
68718;SDS011;55696;52.138;5.444;2022-12-10T09:13:45;41.88;;;14.68;;
68718;SDS011;55696;52.138;5.444;2022-12-10T09:16:12;39.05;;;15.25;;
68718;SDS011;55696;52.138;5.444;2022-12-10T09:18:39;35.70;;;12.93;;
68718;SDS011;55696;52.138;5.444;2022-12-10T09:21:07;71.65;;;16.05;;
68718;SDS011;55696;52.138;5.444;2022-12-10T09:23:36;42.38;;;15.90;;
68718;SDS011;55696;52.138;5.444;2022-12-10T09:26:09;42.08;;;14.68;;
68718;SDS011;55696;52.138;5.444;2022-12-10T09:28:38;67.23;;;14.13;;
68718;SDS011;55696;52.138;5.444;2022-12-10T09:31:06;39.00;;;13.65;;
68718;SDS011;55696;52.138;5.444;2022-12-10T09:33:45;40.90;;;13.40;;
68718;SDS011;55696;52.138;5.444;2022-12-10T09:36:14;37.23;;;14.17;;
68718;SDS011;55696;52.138;5.444;2022-12-10T09:38:41;36.60;;;13.95;;
68718;SDS011;55696;52.138;5.444;2022-12-10T09:41:20;44.33;;;14.40;;
68718;SDS011;55696;52.138;5.444;2022-12-10T09:44:12;49.85;;;14.30;;
68718;SDS011;55696;52.138;5.444;2022-12-10T09:46:54;44.13;;;15.50;;
68718;SDS011;55696;52.138;5.444;2022-12-10T09:51:56;44.42;;;14.70;;
68718;SDS011;55696;52.138;5.444;2022-12-10T09:54:40;40.13;;;14.47;;
68718;SDS011;55696;52.138;5.444;2022-12-10T09:57:13;48.72;;;16.33;;
68718;SDS011;55696;52.138;5.444;2022-12-10T09:59:49;43.92;;;13.30;;
68718;SDS011;55696;52.138;5.444;2022-12-10T10:02:24;47.70;;;15.17;;
68718;SDS011;55696;52.138;5.444;2022-12-10T10:04:54;46.90;;;15.32;;
68718;SDS011;55696;52.138;5.444;2022-12-10T10:07:52;50.10;;;15.90;;
68718;SDS011;55696;52.138;5.444;2022-12-10T10:19:17;53.22;;;16.73;;
68718;SDS011;55696;52.138;5.444;2022-12-10T10:21:51;47.63;;;15.37;;
68718;SDS011;55696;52.138;5.444;2022-12-10T10:24:20;46.85;;;14.55;;
68718;SDS011;55696;52.138;5.444;2022-12-10T10:26:49;46.50;;;16.33;;
68718;SDS011;55696;52.138;5.444;2022-12-10T10:29:19;54.37;;;16.93;;
68718;SDS011;55696;52.138;5.444;2022-12-10T10:31:57;49.72;;;15.55;;
68718;SDS011;55696;52.138;5.444;2022-12-10T10:34:39;43.30;;;14.50;;
68718;SDS011;55696;52.138;5.444;2022-12-10T10:37:11;48.13;;;15.70;;
68718;SDS011;55696;52.138;5.444;2022-12-10T10:39:47;48.70;;;15.88;;
68718;SDS011;55696;52.138;5.444;2022-12-10T10:42:33;46.85;;;15.98;;
68718;SDS011;55696;52.138;5.444;2022-12-10T10:45:06;47.63;;;15.23;;
68718;SDS011;55696;52.138;5.444;2022-12-10T10:48:25;40.77;;;14.03;;
68718;SDS011;55696;52.138;5.444;2022-12-10T10:53:43;41.65;;;14.40;;
68718;SDS011;55696;52.138;5.444;2022-12-10T10:58:54;45.25;;;15.38;;
68718;SDS011;55696;52.138;5.444;2022-12-10T11:01:25;43.38;;;13.43;;
68718;SDS011;55696;52.138;5.444;2022-12-10T11:04:08;37.58;;;13.63;;
68718;SDS011;55696;52.138;5.444;2022-12-10T11:06:36;37.85;;;14.07;;
68718;SDS011;55696;52.138;5.444;2022-12-10T11:09:03;36.55;;;12.40;;
68718;SDS011;55696;52.138;5.444;2022-12-10T11:11:32;47.65;;;14.23;;
68718;SDS011;55696;52.138;5.444;2022-12-10T11:14:44;45.37;;;14.83;;
68718;SDS011;55696;52.138;5.444;2022-12-10T11:19:44;43.95;;;14.75;;
68718;SDS011;55696;52.138;5.444;2022-12-10T11:22:49;46.60;;;15.37;;
68718;SDS011;55696;52.138;5.444;2022-12-10T11:25:27;43.83;;;13.88;;
68718;SDS011;55696;52.138;5.444;2022-12-10T11:28:29;41.08;;;15.15;;
68718;SDS011;55696;52.138;5.444;2022-12-10T11:31:13;39.33;;;13.38;;
68718;SDS011;55696;52.138;5.444;2022-12-10T11:37:22;36.47;;;12.43;;
68718;SDS011;55696;52.138;5.444;2022-12-10T11:46:04;41.03;;;14.18;;
68718;SDS011;55696;52.138;5.444;2022-12-10T11:48:55;56.53;;;15.93;;
68718;SDS011;55696;52.138;5.444;2022-12-10T11:51:40;45.47;;;15.03;;
68718;SDS011;55696;52.138;5.444;2022-12-10T11:57:15;44.03;;;14.88;;
68718;SDS011;55696;52.138;5.444;2022-12-10T12:05:32;41.63;;;13.80;;
68718;SDS011;55696;52.138;5.444;2022-12-10T12:08:37;43.17;;;15.00;;
68718;SDS011;55696;52.138;5.444;2022-12-10T12:11:16;39.93;;;13.43;;
68718;SDS011;55696;52.138;5.444;2022-12-10T12:16:35;43.78;;;14.82;;
68718;SDS011;55696;52.138;5.444;2022-12-10T12:19:11;41.03;;;14.80;;
68718;SDS011;55696;52.138;5.444;2022-12-10T12:21:44;41.60;;;14.50;;
68718;SDS011;55696;52.138;5.444;2022-12-10T12:27:25;44.08;;;14.25;;
68718;SDS011;55696;52.138;5.444;2022-12-10T12:30:02;48.50;;;14.43;;
68718;SDS011;55696;52.138;5.444;2022-12-10T12:32:45;59.60;;;15.45;;
68718;SDS011;55696;52.138;5.444;2022-12-10T12:40:56;47.70;;;14.70;;
68718;SDS011;55696;52.138;5.444;2022-12-10T12:43:37;44.92;;;14.82;;
68718;SDS011;55696;52.138;5.444;2022-12-10T12:46:12;44.95;;;15.20;;
68718;SDS011;55696;52.138;5.444;2022-12-10T12:48:50;41.53;;;14.47;;
68718;SDS011;55696;52.138;5.444;2022-12-10T12:51:34;45.80;;;14.95;;
68718;SDS011;55696;52.138;5.444;2022-12-10T12:54:14;39.33;;;12.82;;
68718;SDS011;55696;52.138;5.444;2022-12-10T13:04:46;46.65;;;14.75;;
68718;SDS011;55696;52.138;5.444;2022-12-10T13:09:45;38.33;;;14.27;;
68718;SDS011;55696;52.138;5.444;2022-12-10T13:12:30;41.22;;;14.30;;
68718;SDS011;55696;52.138;5.444;2022-12-10T13:25:37;46.57;;;15.37;;
68718;SDS011;55696;52.138;5.444;2022-12-10T13:36:35;40.23;;;12.90;;
68718;SDS011;55696;52.138;5.444;2022-12-10T13:45:05;41.35;;;14.85;;
68718;SDS011;55696;52.138;5.444;2022-12-10T14:01:02;38.90;;;14.27;;
68718;SDS011;55696;52.138;5.444;2022-12-10T14:06:18;58.53;;;14.38;;
68718;SDS011;55696;52.138;5.444;2022-12-10T14:08:53;42.47;;;14.35;;
68718;SDS011;55696;52.138;5.444;2022-12-10T14:11:21;44.38;;;15.32;;
68718;SDS011;55696;52.138;5.444;2022-12-10T14:14:02;44.25;;;13.52;;
68718;SDS011;55696;52.138;5.444;2022-12-10T14:16:32;44.05;;;14.27;;
68718;SDS011;55696;52.138;5.444;2022-12-10T14:19:03;41.92;;;12.85;;
68718;SDS011;55696;52.138;5.444;2022-12-10T14:21:38;42.73;;;14.57;;
68718;SDS011;55696;52.138;5.444;2022-12-10T14:24:27;38.92;;;13.60;;
68718;SDS011;55696;52.138;5.444;2022-12-10T14:27:32;36.33;;;13.45;;
68718;SDS011;55696;52.138;5.444;2022-12-10T14:29:57;39.00;;;14.20;;
68718;SDS011;55696;52.138;5.444;2022-12-10T14:32:34;40.72;;;14.38;;
68718;SDS011;55696;52.138;5.444;2022-12-10T14:35:04;47.38;;;15.95;;
68718;SDS011;55696;52.138;5.444;2022-12-10T14:37:36;35.25;;;12.57;;
68718;SDS011;55696;52.138;5.444;2022-12-10T14:40:06;44.47;;;15.00;;
68718;SDS011;55696;52.138;5.444;2022-12-10T14:42:37;42.15;;;15.10;;
68718;SDS011;55696;52.138;5.444;2022-12-10T14:45:05;39.63;;;14.18;;
68718;SDS011;55696;52.138;5.444;2022-12-10T14:47:37;42.87;;;14.40;;
68718;SDS011;55696;52.138;5.444;2022-12-10T14:50:12;42.95;;;15.07;;
68718;SDS011;55696;52.138;5.444;2022-12-10T14:52:43;38.65;;;14.95;;
68718;SDS011;55696;52.138;5.444;2022-12-10T14:55:12;44.37;;;15.23;;
68718;SDS011;55696;52.138;5.444;2022-12-10T14:57:42;40.53;;;13.80;;
68718;SDS011;55696;52.138;5.444;2022-12-10T15:00:24;45.60;;;15.75;;
68718;SDS011;55696;52.138;5.444;2022-12-10T15:02:55;42.92;;;14.90;;
68718;SDS011;55696;52.138;5.444;2022-12-10T15:05:31;38.20;;;13.85;;
68718;SDS011;55696;52.138;5.444;2022-12-10T15:08:00;43.05;;;15.50;;
68718;SDS011;55696;52.138;5.444;2022-12-10T15:10:35;44.10;;;14.40;;
68718;SDS011;55696;52.138;5.444;2022-12-10T15:13:07;49.33;;;14.90;;
68718;SDS011;55696;52.138;5.444;2022-12-10T15:15:46;51.88;;;16.48;;
68718;SDS011;55696;52.138;5.444;2022-12-10T15:18:16;52.92;;;15.25;;
68718;SDS011;55696;52.138;5.444;2022-12-10T15:20:52;43.83;;;14.73;;
68718;SDS011;55696;52.138;5.444;2022-12-10T15:28:29;53.70;;;15.95;;
68718;SDS011;55696;52.138;5.444;2022-12-10T15:33:55;51.10;;;15.18;;
68718;SDS011;55696;52.138;5.444;2022-12-10T15:36:34;49.45;;;16.08;;
68718;SDS011;55696;52.138;5.444;2022-12-10T15:44:23;59.58;;;16.83;;
68718;SDS011;55696;52.138;5.444;2022-12-10T15:47:04;53.38;;;15.48;;
68718;SDS011;55696;52.138;5.444;2022-12-10T15:49:38;54.67;;;16.47;;
68718;SDS011;55696;52.138;5.444;2022-12-10T15:52:05;57.70;;;17.27;;
68718;SDS011;55696;52.138;5.444;2022-12-10T15:54:36;53.50;;;17.75;;
68718;SDS011;55696;52.138;5.444;2022-12-10T15:57:14;60.60;;;17.65;;
68718;SDS011;55696;52.138;5.444;2022-12-10T15:59:51;46.88;;;15.55;;
68718;SDS011;55696;52.138;5.444;2022-12-10T16:05:12;52.80;;;15.55;;
68718;SDS011;55696;52.138;5.444;2022-12-10T16:07:40;50.37;;;16.20;;
68718;SDS011;55696;52.138;5.444;2022-12-10T16:10:09;47.35;;;16.25;;
68718;SDS011;55696;52.138;5.444;2022-12-10T16:12:41;58.75;;;16.60;;
68718;SDS011;55696;52.138;5.444;2022-12-10T16:15:11;56.88;;;18.35;;
68718;SDS011;55696;52.138;5.444;2022-12-10T16:17:44;65.43;;;17.35;;
68718;SDS011;55696;52.138;5.444;2022-12-10T16:22:45;53.08;;;17.58;;
68718;SDS011;55696;52.138;5.444;2022-12-10T16:25:13;47.53;;;15.27;;
68718;SDS011;55696;52.138;5.444;2022-12-10T16:27:40;47.20;;;15.65;;
68718;SDS011;55696;52.138;5.444;2022-12-10T16:30:12;59.45;;;17.23;;
68718;SDS011;55696;52.138;5.444;2022-12-10T16:32:45;62.78;;;18.75;;
68718;SDS011;55696;52.138;5.444;2022-12-10T16:35:13;49.88;;;16.75;;
68718;SDS011;55696;52.138;5.444;2022-12-10T16:37:44;60.40;;;16.17;;
68718;SDS011;55696;52.138;5.444;2022-12-10T16:40:12;76.95;;;17.63;;
68718;SDS011;55696;52.138;5.444;2022-12-10T16:42:40;57.90;;;17.80;;
68718;SDS011;55696;52.138;5.444;2022-12-10T16:45:12;61.50;;;16.08;;
68718;SDS011;55696;52.138;5.444;2022-12-10T16:47:42;53.42;;;16.92;;
68718;SDS011;55696;52.138;5.444;2022-12-10T16:50:09;57.55;;;17.42;;
68718;SDS011;55696;52.138;5.444;2022-12-10T16:52:38;51.45;;;16.52;;
68718;SDS011;55696;52.138;5.444;2022-12-10T16:55:06;51.70;;;16.02;;
68718;SDS011;55696;52.138;5.444;2022-12-10T16:57:37;49.92;;;16.63;;
68718;SDS011;55696;52.138;5.444;2022-12-10T17:00:07;50.50;;;16.57;;
68718;SDS011;55696;52.138;5.444;2022-12-10T17:02:35;48.90;;;16.13;;
68718;SDS011;55696;52.138;5.444;2022-12-10T17:05:02;40.47;;;14.20;;
68718;SDS011;55696;52.138;5.444;2022-12-10T17:07:29;42.57;;;15.40;;
68718;SDS011;55696;52.138;5.444;2022-12-10T17:09:56;60.95;;;16.33;;
68718;SDS011;55696;52.138;5.444;2022-12-10T17:12:27;52.38;;;16.95;;
68718;SDS011;55696;52.138;5.444;2022-12-10T17:14:55;51.88;;;16.08;;